• Join FlightAware (Why Join?)
  • Login
  • US Flag 
10:54AM EST


 

Airport Tracker/Info


-or-


 

Live Flight TrackerFlight Track Log ✈ DAL3799 ✈ 29-Apr-2013 ✈ KDTW - CYOW

Flight Track Log - Related Links

Times and Time Zones

All times are in EDT time to prevent confusion due to time zone crossing. See the DAL3799 flight status page for this flight to view local times or setup timezone preferences in your user account.

Time Position Orientation Groundspeed Altitude Reporting Facility
EDT Latitude Longitude Course Direction KTS MPH feet Rate Location/Type
10:07PM 42.1994 -83.3608 12° North 144 166 1,500  Level Cleveland Center
10:09PM 42.1517 -83.4344 229° Southwest 209 241 3,800 1,860 Climbing Cleveland Center
10:10PM 42.5285 -83.2382 12° North  Level FlightAware Approximate
10:10PM 42.1103 -83.5111 234° Southwest 274 315 6,100  Level Cleveland Center
10:11PM 42.6409 -83.2044 12° North  Level FlightAware Approximate
10:11PM 42.1567 -83.5692 317° Northwest 277 319 9,200  Level Cleveland Center
10:11PM 42.2197 -83.5469 15° North 321 369 10,600 1,680 Climbing Cleveland Center
10:12PM 42.7534 -83.1706 12° North  Level FlightAware Approximate
10:12PM 42.3044 -83.4975 23° Northeast 344 396 12,400  Level Cleveland Center
10:13PM 42.3933 -83.4397 26° Northeast 361 415 13,300 900 Climbing Cleveland Center
10:14PM 42.4803 -83.3900 23° Northeast 361 415 14,200 1,320 Climbing Cleveland Center
10:15PM 42.5817 -83.3269 25° Northeast 373 429 16,000 1,560 Climbing Cleveland Center
10:16PM 42.6789 -83.2692 24° Northeast 378 435 17,400 1,200 Climbing Cleveland Center
10:17PM 42.7806 -83.2056 25° Northeast 383 441 18,400 1,020 Climbing Cleveland Center
10:18PM 42.8800 -83.1331 28° Northeast 383 441 19,500 1,020 Climbing Cleveland Center
10:19PM 42.9250 -82.9847 67° East 379 436 20,500 960 Climbing Cleveland Center
10:20PM 42.9594 -82.8214 74° East 400 460 21,500 960 Climbing Cleveland Center
10:21PM 42.9939 -82.6611 74° East 424 488 22,500 960 Climbing Cleveland Center
10:22PM 43.0278 -82.4975 74° East 435 501 23,500 1,020 Climbing Cleveland Center
10:24PM 43.0667 -82.2833 76° East 440 506 24,800 1,020 Climbing Toronto Center
10:25PM 43.0833 -82.1167 82° East 440 506 25,800 1,020 Climbing Toronto Center
10:26PM 43.1167 -81.9667 73° East 440 506 26,900 960 Climbing Toronto Center
10:27PM 43.1667 -81.8000 68° East 430 495 27,800 960 Climbing Toronto Center
10:28PM 43.2000 -81.6500 73° East 430 495 28,900 600 Climbing Toronto Center
10:29PM 43.2333 -81.4833 75° East 430 495 29,000  Climbing Toronto Center
10:30PM 43.2500 -81.3333 81° East 450 518 29,000  Level Toronto Center
10:31PM 43.2833 -81.1500 76° East 460 529 29,000  Level Toronto Center
10:32PM 43.3167 -80.9833 75° East 470 541 29,000  Level Toronto Center
10:33PM 43.3667 -80.8000 69° East 480 552 29,000  Level Toronto Center
10:34PM 43.4000 -80.6167 76° East 480 552 29,000  Level Toronto Center
10:35PM 43.4333 -80.4333 76° East 480 552 29,000  Level Toronto Center
10:36PM 43.4833 -80.2833 65° Northeast 490 564 29,000  Level Toronto Center
10:37PM 43.5167 -80.1000 76° East 490 564 29,000  Level Toronto Center
10:38PM 43.5667 -79.9167 69° East 490 564 29,000  Level Toronto Center
10:39PM 43.6167 -79.7333 69° East 490 564 29,000  Level Toronto Center
10:40PM 43.6667 -79.5667 67° East 490 564 29,000  Level Toronto Center
10:41PM 43.7167 -79.3833 69° East 490 564 29,000  Level Toronto Center
10:42PM 43.7667 -79.2167 67° East 490 564 29,000  Level Toronto Center
10:43PM 43.8167 -79.0333 69° East 490 564 29,000  Level Toronto Center
10:44PM 43.8667 -78.8667 67° East 490 564 29,000  Level Toronto Center
10:45PM 43.9167 -78.6833 69° East 490 564 29,000  Level Toronto Center
10:46PM 43.9667 -78.5167 67° East 480 552 29,000  Level Toronto Center
10:47PM 44.0167 -78.3333 69° East 480 552 29,000  Level Toronto Center
10:48PM 44.0667 -78.1667 67° East 480 552 29,000  Level Toronto Center
10:49PM 44.1333 -78.0000 61° Northeast 480 552 29,000  Level Toronto Center
10:50PM 44.2167 -77.8333 55° Northeast 480 552 29,000  Level Toronto Center
10:51PM 44.2833 -77.7000 55° Northeast 480 552 29,000  Level Toronto Center
10:52PM 44.3667 -77.5333 55° Northeast 480 552 29,000  Level Toronto Center
10:53PM 44.4333 -77.3833 58° Northeast 470 541 29,000 -900 Level Toronto Center
10:54PM 44.5000 -77.2167 61° Northeast 470 541 27,300 -1,920 Descending Toronto Center
10:55PM 44.5667 -77.0833 55° Northeast 460 529 25,200 -2,100 Descending Toronto Center
10:56PM 44.6333 -76.9333 58° Northeast 460 529 23,200 -2,040 Descending Toronto Center
10:57PM 44.7167 -76.8000 49° Northeast 460 529 21,200 -1,860 Descending Toronto Center
10:58PM 44.7833 -76.6500 58° Northeast 450 518 19,500 -1,740 Descending Toronto Center
10:59PM 44.8500 -76.5000 58° Northeast 430 495 17,800 -1,800 Descending Toronto Center
11:00PM 44.9167 -76.3833 51° Northeast 430 495 16,000 -1,860 Descending Toronto Center
11:01PM 45.0000 -76.2333 52° Northeast 420 483 14,100 -2,100 Descending Toronto Center
11:02PM 45.0667 -76.1333 47° Northeast 380 437 11,900 -2,400 Descending Toronto Center
11:03PM 45.1000 -76.0333 65° Northeast 320 368 9,300 -2,640 Descending Toronto Center
11:04PM 45.1500 -75.9500 50° Northeast 300 345 6,700 -2,700 Descending Toronto Center
11:05PM 45.2000 -75.8500 55° Northeast 280 322 4,000 -2,100 Descending Toronto Center
11:06PM 45.2500 -75.7667 50° Northeast 250 288 2,600 -1,200 Descending Toronto Center
11:07PM 45.2667 -75.7000 70° East 210 242 1,600 -960 Descending Toronto Center
11:08PM 45.3000 -75.6500 47° Northeast 150 173 700 -900 Descending Toronto Center